Jump to content

Baard Salvesen

Members
  • Content Count

    264
  • Joined

  • Last visited

Community Reputation

0 Neutral

About Baard Salvesen

  • Birthday 05/25/1991
  1. Det finnes da en veldig bra freewere Orion allerede...
  2. Min stemme går til Kato-air. Det kunne vært virkelig spennende. Cessna Caravan pluss nord-norske flyplasser er ern bra kombinasjon
  3. Jeg har laget et Excel-ark med Norske ILS, NDB og VOR-frekvenser. Hvis noen er interessert kan jeg sende det...
  4. Å jeg som gruer meg til norsk literaturhistorieprøve i morra Lykke til
  5. Takker for svar! Venter på at den skal komme
  6. Har tittet litt på Aerosoft's Freigh Dogs. Vil denne pakken komme i FS.no's shop?
  7. Jeg hører en del trafikk på scanneren min. Tror TRD er oppe igjen.
  8. Så i Dagbladet forleden dag at et "Cezna" fly hadde krasjet i Polen. Har Cessna åpnet avdeling i Polen?
  9. Driver på med turen Værnes-Alicante i Piper Dakota, via Gardermoen, Billund, Amsterdam, Paris, Limoges, Torlouse og Barcelona. Det blir en del timer det og. En tur som dette krever tålmodighet
  10. Hva med Værnes i stedet for Kvernberget? God tur
  11. Har abonenert på PCPILOT i over et år, og det glimrende lesestoff... Anbefales!!
  12. Metar til Bodø og Værnes: ENVA 112120Z 28034G44KT 9999 SHRA FEW015CB BKN030 05/00 Q1011 RMK RMK WIND AT 670FT 27049G64KT ENBO 112050Z 24054G68KT 7000 SHRA FEW008 FEW012CB BKN020 05/03 Q0982 REGS TEMPO 4000 SHRAGS BKN012CB *UPDATE* Litt nyere METAR
  13. Jeg prøvde meg med Cessna Caravan på FS9 med "realweather" og tur mellom Bodø og Andøya. Avgangen på Bodø, og landingen på Andøya ble et mareritt, tro meg!
  14. Det kunne bli artig med noen turer med Orion, ettersom det finnes en veldig bra fly av den modellen.
×
×
  • Create New...